Simpson, Illinois
Current Conditions -  °F | °C
As of 10:15 PM on Wednesday 17 Dec 2014 (Local Time) from KM30 Reporting Station
Overcast Overcast  
Wind Chill: 35°   Ceiling: 9000
Heat Index: 35°   Visibility: 10mi
Dew Point: 31°   Wind: 0mph
Humidity: 83%   Direction: NA
Pressure: 30.29"   Gusts: NA
Location:  37.47°N, 88.76°W
Report Text: KM30 180415Z AUTO 00000KT 10SM OVC090 02/M01 A3029 RMK AO2 T00181008
Loading
Personal Weather Stations






























Interactive Weather Map New forecast layout! Learn more

10-Day Weather Forecast

Advertisements
Track Severe Weather on mobile